This is the latest recevied weather packets stored in our database for station/object EB1TR-13. If no packets are shown the sender has not sent any weather packets the latest 10 day(s).
| Time | Temp. | Humidity | Pressure | Rain* | Wind** | Luminosity | Snow |
|---|---|---|---|---|---|---|---|
| 1788019089 | 21.67° C | 72% | 1018 hPa | 0 mm | - | 0 W/m² | - |
| 1788018189 | 23.89° C | 68% | 1018 hPa | 0 mm | - | 0 W/m² | - |
| 1788017289 | 23.89° C | 67% | 1018 hPa | 0 mm | - | 0 W/m² | - |
| 1788016389 | 23.89° C | 67% | 1018 hPa | 0 mm | - | 0 W/m² | - |
| 1788015489 | 23.89° C | 65% | 1018 hPa | 0 mm | - | 0 W/m² | - |
| 1788014589 | 23.89° C | 64% | 1018 hPa | 0 mm | - | 0 W/m² | - |
| 1788013689 | 23.89° C | 64% | 1018 hPa | 0 mm | - | 0 W/m² | - |
| 1788012789 | 23.89° C | 63% | 1018 hPa | 0 mm | - | 0 W/m² | - |
| 1788011889 | 23.89° C | 63% | 1018 hPa | 0 mm | - | 0 W/m² | - |
| 1788010989 | 24.44° C | 60% | 1018 hPa | 0 mm | - | 0 W/m² | - |
| 1788010089 | 25° C | 58% | 1018 hPa | 0 mm | - | 0 W/m² | - |
| 1788009189 | 25° C | 59% | 1018 hPa | 0 mm | - | 0 W/m² | - |
| 1788008289 | 25° C | 58% | 1017 hPa | 0 mm | - | 0 W/m² | - |
| 1788007389 | 25° C | 60% | 1017 hPa | 0 mm | - | 0 W/m² | - |
| 1788006489 | 25.56° C | 59% | 1017 hPa | 0 mm | - | 0 W/m² | - |
| 1788005589 | 25° C | 59% | 1017 hPa | 0 mm | - | 0 W/m² | - |
| 1788004689 | 25° C | 58% | 1017 hPa | 0 mm | - | 0 W/m² | - |
| 1788003789 | 27.22° C | 53% | 1017 hPa | 0 mm | - | 0 W/m² | - |
| 1788002889 | 27.22° C | 53% | 1018 hPa | 0 mm | - | 0 W/m² | - |
| 1788001989 | 26.67° C | 52% | 1017 hPa | 0 mm | - | 0 W/m² | - |
| 1788001089 | 25.56° C | 58% | 1017 hPa | 0 mm | - | 0 W/m² | - |
| 1788000189 | 23.89° C | 64% | 1018 hPa | 0 mm | - | 0 W/m² | - |
| 1787999289 | 23.33° C | 68% | 1018 hPa | 0 mm | - | 0 W/m² | - |
| 1787998389 | 23.33° C | 67% | 1018 hPa | 0 mm | - | 0 W/m² | - |
| 1787997489 | 24.44° C | 55% | 1018 hPa | 0 mm | - | 0 W/m² | - |
* Rain latest hour (hover to see other rain measurements)
** Current wind speed in m/s (hover to see current wind gust speed)